Terminal Aerodrome Forecast
Issued by NWS

Home | Current Version | Previous Version | Text Only | Print | Product List | Glossary On
Versions: 1 2 3 4 5 6 7 8 9 10 11 12 13 14 15
000
FTUS45 KABQ 300539
TAFTCC
TAF
KTCC 300539Z 3006/3106 VRB04KT P6SM FEW100 BKN150
     FM301700 19007KT P6SM SCT050
     FM302000 21011KT P6SM FEW070
     FM310000 16011KT P6SM BKN080=

USA.gov is the U.S. government's official web portal to all federal, state and local government web resources and services.